sensor_id;sensor_type;location;lat;lon;timestamp;P1;durP1;ratioP1;P2;durP2;ratioP2
12348;SDS011;5974;42.710;27.258;2024-01-15T00:00:51;51.30;;;32.70;;
12348;SDS011;5974;42.710;27.258;2024-01-15T00:03:19;62.30;;;36.47;;
12348;SDS011;5974;42.710;27.258;2024-01-15T00:05:46;55.97;;;35.63;;
12348;SDS011;5974;42.710;27.258;2024-01-15T00:08:13;66.93;;;40.90;;
12348;SDS011;5974;42.710;27.258;2024-01-15T00:10:39;60.37;;;38.67;;
12348;SDS011;5974;42.710;27.258;2024-01-15T00:13:06;54.03;;;34.40;;
12348;SDS011;5974;42.710;27.258;2024-01-15T00:15:33;58.90;;;36.70;;
12348;SDS011;5974;42.710;27.258;2024-01-15T00:18:00;57.67;;;36.70;;
12348;SDS011;5974;42.710;27.258;2024-01-15T00:20:28;56.73;;;36.13;;
12348;SDS011;5974;42.710;27.258;2024-01-15T00:22:55;57.80;;;37.00;;
12348;SDS011;5974;42.710;27.258;2024-01-15T00:25:21;48.03;;;30.33;;
12348;SDS011;5974;42.710;27.258;2024-01-15T00:27:49;42.73;;;27.37;;
12348;SDS011;5974;42.710;27.258;2024-01-15T00:30:15;44.80;;;28.67;;
12348;SDS011;5974;42.710;27.258;2024-01-15T00:32:42;45.47;;;29.07;;
12348;SDS011;5974;42.710;27.258;2024-01-15T00:35:09;46.27;;;29.60;;
12348;SDS011;5974;42.710;27.258;2024-01-15T00:37:37;44.37;;;26.43;;
12348;SDS011;5974;42.710;27.258;2024-01-15T00:40:05;41.33;;;26.93;;
12348;SDS011;5974;42.710;27.258;2024-01-15T00:42:33;36.53;;;24.37;;
12348;SDS011;5974;42.710;27.258;2024-01-15T00:45:00;33.47;;;20.77;;
12348;SDS011;5974;42.710;27.258;2024-01-15T00:47:26;35.30;;;23.53;;
12348;SDS011;5974;42.710;27.258;2024-01-15T00:49:53;31.93;;;20.67;;
12348;SDS011;5974;42.710;27.258;2024-01-15T00:52:20;37.43;;;23.30;;
12348;SDS011;5974;42.710;27.258;2024-01-15T00:54:48;33.87;;;22.17;;
12348;SDS011;5974;42.710;27.258;2024-01-15T00:57:14;33.57;;;19.63;;
12348;SDS011;5974;42.710;27.258;2024-01-15T00:59:41;33.13;;;20.23;;
12348;SDS011;5974;42.710;27.258;2024-01-15T01:02:08;32.33;;;19.60;;
12348;SDS011;5974;42.710;27.258;2024-01-15T01:04:35;31.67;;;18.70;;
12348;SDS011;5974;42.710;27.258;2024-01-15T01:07:02;31.87;;;18.83;;
12348;SDS011;5974;42.710;27.258;2024-01-15T01:09:28;33.23;;;19.30;;
12348;SDS011;5974;42.710;27.258;2024-01-15T01:11:56;32.20;;;19.43;;
12348;SDS011;5974;42.710;27.258;2024-01-15T01:14:23;29.73;;;18.53;;
12348;SDS011;5974;42.710;27.258;2024-01-15T01:16:50;27.17;;;17.97;;
12348;SDS011;5974;42.710;27.258;2024-01-15T01:19:17;28.73;;;17.30;;
12348;SDS011;5974;42.710;27.258;2024-01-15T01:21:43;30.50;;;18.60;;
12348;SDS011;5974;42.710;27.258;2024-01-15T01:24:10;31.20;;;19.30;;
12348;SDS011;5974;42.710;27.258;2024-01-15T01:26:37;29.47;;;18.17;;
12348;SDS011;5974;42.710;27.258;2024-01-15T01:29:05;28.27;;;18.27;;
12348;SDS011;5974;42.710;27.258;2024-01-15T01:31:32;28.87;;;18.37;;
12348;SDS011;5974;42.710;27.258;2024-01-15T01:33:58;28.63;;;17.63;;
12348;SDS011;5974;42.710;27.258;2024-01-15T01:36:25;29.57;;;18.77;;
12348;SDS011;5974;42.710;27.258;2024-01-15T01:38:52;28.53;;;17.13;;
12348;SDS011;5974;42.710;27.258;2024-01-15T01:41:19;27.67;;;16.80;;
12348;SDS011;5974;42.710;27.258;2024-01-15T01:43:45;27.77;;;17.80;;
12348;SDS011;5974;42.710;27.258;2024-01-15T01:46:13;30.07;;;17.50;;
12348;SDS011;5974;42.710;27.258;2024-01-15T01:48:40;26.57;;;17.17;;
12348;SDS011;5974;42.710;27.258;2024-01-15T01:51:07;32.80;;;18.87;;
12348;SDS011;5974;42.710;27.258;2024-01-15T01:53:34;40.80;;;20.40;;
12348;SDS011;5974;42.710;27.258;2024-01-15T01:56:04;56.10;;;24.17;;
12348;SDS011;5974;42.710;27.258;2024-01-15T01:58:32;48.63;;;23.77;;
12348;SDS011;5974;42.710;27.258;2024-01-15T02:00:59;56.53;;;24.87;;
12348;SDS011;5974;42.710;27.258;2024-01-15T02:03:28;55.33;;;25.10;;
12348;SDS011;5974;42.710;27.258;2024-01-15T02:05:56;40.00;;;21.50;;
12348;SDS011;5974;42.710;27.258;2024-01-15T02:08:23;33.90;;;19.00;;
12348;SDS011;5974;42.710;27.258;2024-01-15T02:10:50;38.80;;;20.50;;
12348;SDS011;5974;42.710;27.258;2024-01-15T02:13:17;41.07;;;22.30;;
12348;SDS011;5974;42.710;27.258;2024-01-15T02:15:44;45.60;;;22.67;;
12348;SDS011;5974;42.710;27.258;2024-01-15T02:18:10;42.80;;;23.37;;
12348;SDS011;5974;42.710;27.258;2024-01-15T02:20:38;41.83;;;22.40;;
12348;SDS011;5974;42.710;27.258;2024-01-15T02:23:09;36.63;;;21.83;;
12348;SDS011;5974;42.710;27.258;2024-01-15T02:25:37;46.13;;;22.63;;
12348;SDS011;5974;42.710;27.258;2024-01-15T02:28:04;37.17;;;22.43;;
12348;SDS011;5974;42.710;27.258;2024-01-15T02:30:32;40.53;;;22.53;;
12348;SDS011;5974;42.710;27.258;2024-01-15T02:33:00;39.87;;;21.07;;
12348;SDS011;5974;42.710;27.258;2024-01-15T02:35:27;43.80;;;24.43;;
12348;SDS011;5974;42.710;27.258;2024-01-15T02:37:54;39.33;;;22.43;;
12348;SDS011;5974;42.710;27.258;2024-01-15T02:40:22;41.73;;;23.67;;
12348;SDS011;5974;42.710;27.258;2024-01-15T02:42:49;38.50;;;23.37;;
12348;SDS011;5974;42.710;27.258;2024-01-15T02:45:16;41.87;;;22.93;;
12348;SDS011;5974;42.710;27.258;2024-01-15T02:47:43;38.17;;;22.23;;
12348;SDS011;5974;42.710;27.258;2024-01-15T02:50:09;40.20;;;22.83;;
12348;SDS011;5974;42.710;27.258;2024-01-15T02:52:36;36.10;;;20.43;;
12348;SDS011;5974;42.710;27.258;2024-01-15T02:55:03;31.30;;;20.03;;
12348;SDS011;5974;42.710;27.258;2024-01-15T02:57:32;33.77;;;20.30;;
12348;SDS011;5974;42.710;27.258;2024-01-15T02:59:58;32.80;;;18.87;;
12348;SDS011;5974;42.710;27.258;2024-01-15T03:02:25;30.87;;;18.93;;
12348;SDS011;5974;42.710;27.258;2024-01-15T03:04:52;35.50;;;21.43;;
12348;SDS011;5974;42.710;27.258;2024-01-15T03:07:19;49.80;;;28.73;;
12348;SDS011;5974;42.710;27.258;2024-01-15T03:09:45;51.37;;;28.23;;
12348;SDS011;5974;42.710;27.258;2024-01-15T03:12:12;47.90;;;27.80;;
12348;SDS011;5974;42.710;27.258;2024-01-15T03:14:40;30.17;;;19.60;;
12348;SDS011;5974;42.710;27.258;2024-01-15T03:17:07;31.73;;;19.13;;
12348;SDS011;5974;42.710;27.258;2024-01-15T03:19:35;31.83;;;17.93;;
12348;SDS011;5974;42.710;27.258;2024-01-15T03:22:02;30.90;;;18.80;;
12348;SDS011;5974;42.710;27.258;2024-01-15T03:24:29;32.07;;;19.73;;
12348;SDS011;5974;42.710;27.258;2024-01-15T03:26:55;34.60;;;20.77;;
12348;SDS011;5974;42.710;27.258;2024-01-15T03:29:25;33.87;;;19.77;;
12348;SDS011;5974;42.710;27.258;2024-01-15T03:31:53;30.37;;;17.97;;
12348;SDS011;5974;42.710;27.258;2024-01-15T03:34:20;29.00;;;18.10;;
12348;SDS011;5974;42.710;27.258;2024-01-15T03:36:47;32.20;;;19.00;;
12348;SDS011;5974;42.710;27.258;2024-01-15T03:39:13;29.67;;;18.77;;
12348;SDS011;5974;42.710;27.258;2024-01-15T03:41:40;29.80;;;18.30;;
12348;SDS011;5974;42.710;27.258;2024-01-15T03:44:07;29.50;;;17.10;;
12348;SDS011;5974;42.710;27.258;2024-01-15T03:46:34;27.93;;;18.03;;
12348;SDS011;5974;42.710;27.258;2024-01-15T03:49:02;26.30;;;16.47;;
12348;SDS011;5974;42.710;27.258;2024-01-15T03:51:29;29.53;;;17.60;;
12348;SDS011;5974;42.710;27.258;2024-01-15T03:53:56;29.80;;;17.77;;
12348;SDS011;5974;42.710;27.258;2024-01-15T03:56:22;26.37;;;15.93;;
12348;SDS011;5974;42.710;27.258;2024-01-15T03:58:49;30.97;;;16.87;;
12348;SDS011;5974;42.710;27.258;2024-01-15T04:01:16;26.67;;;16.70;;
12348;SDS011;5974;42.710;27.258;2024-01-15T04:03:43;30.77;;;17.17;;
12348;SDS011;5974;42.710;27.258;2024-01-15T04:06:11;32.23;;;17.83;;
12348;SDS011;5974;42.710;27.258;2024-01-15T04:08:37;27.93;;;16.43;;
12348;SDS011;5974;42.710;27.258;2024-01-15T04:11:04;24.63;;;16.40;;
12348;SDS011;5974;42.710;27.258;2024-01-15T04:13:32;28.33;;;16.37;;
12348;SDS011;5974;42.710;27.258;2024-01-15T04:15:59;29.07;;;17.80;;
12348;SDS011;5974;42.710;27.258;2024-01-15T04:18:26;27.27;;;17.10;;
12348;SDS011;5974;42.710;27.258;2024-01-15T04:20:53;33.03;;;17.70;;
12348;SDS011;5974;42.710;27.258;2024-01-15T04:23:21;29.57;;;17.10;;
12348;SDS011;5974;42.710;27.258;2024-01-15T04:25:48;26.10;;;16.43;;
12348;SDS011;5974;42.710;27.258;2024-01-15T04:28:14;28.57;;;16.83;;
12348;SDS011;5974;42.710;27.258;2024-01-15T04:30:41;28.30;;;17.40;;
12348;SDS011;5974;42.710;27.258;2024-01-15T04:33:08;29.27;;;17.17;;
12348;SDS011;5974;42.710;27.258;2024-01-15T04:35:35;26.67;;;16.37;;
12348;SDS011;5974;42.710;27.258;2024-01-15T04:38:01;28.73;;;17.37;;
12348;SDS011;5974;42.710;27.258;2024-01-15T04:40:30;26.03;;;16.07;;
12348;SDS011;5974;42.710;27.258;2024-01-15T04:42:56;26.23;;;16.33;;
12348;SDS011;5974;42.710;27.258;2024-01-15T04:45:23;25.97;;;16.07;;
12348;SDS011;5974;42.710;27.258;2024-01-15T04:47:53;29.30;;;17.03;;
12348;SDS011;5974;42.710;27.258;2024-01-15T04:50:20;24.50;;;15.77;;
12348;SDS011;5974;42.710;27.258;2024-01-15T04:52:47;27.97;;;16.93;;
12348;SDS011;5974;42.710;27.258;2024-01-15T04:55:14;23.67;;;15.20;;
12348;SDS011;5974;42.710;27.258;2024-01-15T04:57:42;26.07;;;15.10;;
12348;SDS011;5974;42.710;27.258;2024-01-15T05:00:09;25.33;;;14.70;;
12348;SDS011;5974;42.710;27.258;2024-01-15T05:02:37;29.20;;;16.63;;
12348;SDS011;5974;42.710;27.258;2024-01-15T05:05:04;27.10;;;16.73;;
12348;SDS011;5974;42.710;27.258;2024-01-15T05:07:30;27.33;;;16.07;;
12348;SDS011;5974;42.710;27.258;2024-01-15T05:09:57;27.50;;;15.90;;
12348;SDS011;5974;42.710;27.258;2024-01-15T05:12:24;26.03;;;16.00;;
12348;SDS011;5974;42.710;27.258;2024-01-15T05:14:52;24.70;;;14.93;;
12348;SDS011;5974;42.710;27.258;2024-01-15T05:17:19;24.57;;;14.70;;
12348;SDS011;5974;42.710;27.258;2024-01-15T05:19:45;24.97;;;15.30;;
12348;SDS011;5974;42.710;27.258;2024-01-15T05:22:12;25.27;;;15.30;;
12348;SDS011;5974;42.710;27.258;2024-01-15T05:24:39;27.03;;;15.77;;
12348;SDS011;5974;42.710;27.258;2024-01-15T05:27:06;25.80;;;15.73;;
12348;SDS011;5974;42.710;27.258;2024-01-15T05:29:32;33.47;;;18.70;;
12348;SDS011;5974;42.710;27.258;2024-01-15T05:32:00;25.23;;;15.00;;
12348;SDS011;5974;42.710;27.258;2024-01-15T05:34:27;26.50;;;14.77;;
12348;SDS011;5974;42.710;27.258;2024-01-15T05:36:53;31.37;;;15.60;;
12348;SDS011;5974;42.710;27.258;2024-01-15T05:39:20;24.67;;;14.70;;
12348;SDS011;5974;42.710;27.258;2024-01-15T05:41:46;25.53;;;15.23;;
12348;SDS011;5974;42.710;27.258;2024-01-15T05:44:13;29.20;;;15.47;;
12348;SDS011;5974;42.710;27.258;2024-01-15T05:46:40;27.37;;;15.93;;
12348;SDS011;5974;42.710;27.258;2024-01-15T05:49:08;25.40;;;15.83;;
12348;SDS011;5974;42.710;27.258;2024-01-15T05:51:34;22.37;;;14.57;;
12348;SDS011;5974;42.710;27.258;2024-01-15T05:54:01;25.20;;;14.83;;
12348;SDS011;5974;42.710;27.258;2024-01-15T05:56:28;24.07;;;14.80;;
12348;SDS011;5974;42.710;27.258;2024-01-15T05:58:55;26.77;;;15.43;;
12348;SDS011;5974;42.710;27.258;2024-01-15T06:01:22;31.17;;;19.30;;
12348;SDS011;5974;42.710;27.258;2024-01-15T06:03:49;32.60;;;19.50;;
12348;SDS011;5974;42.710;27.258;2024-01-15T06:06:17;27.60;;;16.17;;
12348;SDS011;5974;42.710;27.258;2024-01-15T06:08:43;22.20;;;13.43;;
12348;SDS011;5974;42.710;27.258;2024-01-15T06:11:10;23.83;;;14.00;;
12348;SDS011;5974;42.710;27.258;2024-01-15T06:13:37;28.63;;;16.63;;
12348;SDS011;5974;42.710;27.258;2024-01-15T06:16:11;27.40;;;14.77;;
12348;SDS011;5974;42.710;27.258;2024-01-15T06:18:38;31.50;;;16.13;;
12348;SDS011;5974;42.710;27.258;2024-01-15T06:21:05;26.80;;;15.53;;
12348;SDS011;5974;42.710;27.258;2024-01-15T06:23:33;22.87;;;13.97;;
12348;SDS011;5974;42.710;27.258;2024-01-15T06:26:00;22.27;;;16.07;;
12348;SDS011;5974;42.710;27.258;2024-01-15T06:28:28;25.03;;;14.97;;
12348;SDS011;5974;42.710;27.258;2024-01-15T06:30:55;22.63;;;14.37;;
12348;SDS011;5974;42.710;27.258;2024-01-15T06:33:23;26.07;;;15.83;;
12348;SDS011;5974;42.710;27.258;2024-01-15T06:35:50;44.53;;;26.47;;
12348;SDS011;5974;42.710;27.258;2024-01-15T06:38:17;46.97;;;29.93;;
12348;SDS011;5974;42.710;27.258;2024-01-15T06:40:45;24.87;;;16.53;;
12348;SDS011;5974;42.710;27.258;2024-01-15T06:43:13;21.10;;;14.90;;
12348;SDS011;5974;42.710;27.258;2024-01-15T06:45:40;23.60;;;15.63;;
12348;SDS011;5974;42.710;27.258;2024-01-15T06:48:07;25.53;;;16.57;;
12348;SDS011;5974;42.710;27.258;2024-01-15T06:50:34;28.40;;;19.13;;
12348;SDS011;5974;42.710;27.258;2024-01-15T06:53:01;92.33;;;62.20;;
12348;SDS011;5974;42.710;27.258;2024-01-15T06:55:28;30.23;;;21.10;;
12348;SDS011;5974;42.710;27.258;2024-01-15T06:57:56;28.30;;;18.87;;
12348;SDS011;5974;42.710;27.258;2024-01-15T07:00:22;33.57;;;21.37;;
12348;SDS011;5974;42.710;27.258;2024-01-15T07:02:49;38.43;;;26.03;;
12348;SDS011;5974;42.710;27.258;2024-01-15T07:05:17;35.67;;;25.20;;
12348;SDS011;5974;42.710;27.258;2024-01-15T07:07:43;58.33;;;37.23;;
12348;SDS011;5974;42.710;27.258;2024-01-15T07:10:10;60.53;;;39.80;;
12348;SDS011;5974;42.710;27.258;2024-01-15T07:12:37;62.40;;;42.93;;
12348;SDS011;5974;42.710;27.258;2024-01-15T07:15:05;70.50;;;44.07;;
12348;SDS011;5974;42.710;27.258;2024-01-15T07:17:33;91.03;;;53.90;;
12348;SDS011;5974;42.710;27.258;2024-01-15T07:20:00;94.23;;;61.60;;
12348;SDS011;5974;42.710;27.258;2024-01-15T07:22:26;78.13;;;48.37;;
12348;SDS011;5974;42.710;27.258;2024-01-15T07:24:53;85.23;;;47.83;;
12348;SDS011;5974;42.710;27.258;2024-01-15T07:27:20;88.97;;;53.20;;
12348;SDS011;5974;42.710;27.258;2024-01-15T07:29:47;119.90;;;67.43;;
12348;SDS011;5974;42.710;27.258;2024-01-15T07:32:15;79.90;;;50.03;;
12348;SDS011;5974;42.710;27.258;2024-01-15T07:34:42;84.97;;;51.77;;
12348;SDS011;5974;42.710;27.258;2024-01-15T07:37:08;64.73;;;43.50;;
12348;SDS011;5974;42.710;27.258;2024-01-15T07:39:35;65.10;;;42.77;;
12348;SDS011;5974;42.710;27.258;2024-01-15T07:42:03;56.70;;;37.17;;
12348;SDS011;5974;42.710;27.258;2024-01-15T07:44:30;40.20;;;28.30;;
12348;SDS011;5974;42.710;27.258;2024-01-15T07:46:57;36.47;;;26.70;;
12348;SDS011;5974;42.710;27.258;2024-01-15T07:49:25;46.00;;;31.70;;
12348;SDS011;5974;42.710;27.258;2024-01-15T07:51:52;30.37;;;22.73;;
12348;SDS011;5974;42.710;27.258;2024-01-15T07:54:18;35.27;;;24.33;;
12348;SDS011;5974;42.710;27.258;2024-01-15T07:56:54;39.53;;;25.27;;
12348;SDS011;5974;42.710;27.258;2024-01-15T07:59:22;28.30;;;20.73;;
12348;SDS011;5974;42.710;27.258;2024-01-15T08:01:49;27.63;;;20.60;;
12348;SDS011;5974;42.710;27.258;2024-01-15T08:04:16;43.97;;;28.40;;
12348;SDS011;5974;42.710;27.258;2024-01-15T08:06:44;45.43;;;31.77;;
12348;SDS011;5974;42.710;27.258;2024-01-15T08:09:10;49.60;;;36.37;;
12348;SDS011;5974;42.710;27.258;2024-01-15T08:11:39;54.37;;;38.03;;
12348;SDS011;5974;42.710;27.258;2024-01-15T08:14:06;49.30;;;35.17;;
12348;SDS011;5974;42.710;27.258;2024-01-15T08:16:33;59.33;;;42.33;;
12348;SDS011;5974;42.710;27.258;2024-01-15T08:19:00;37.20;;;26.67;;
12348;SDS011;5974;42.710;27.258;2024-01-15T08:21:27;42.80;;;27.93;;
12348;SDS011;5974;42.710;27.258;2024-01-15T08:23:56;36.40;;;25.37;;
12348;SDS011;5974;42.710;27.258;2024-01-15T08:26:23;35.30;;;24.97;;
12348;SDS011;5974;42.710;27.258;2024-01-15T08:28:50;34.10;;;22.83;;
12348;SDS011;5974;42.710;27.258;2024-01-15T08:31:17;37.93;;;27.03;;
12348;SDS011;5974;42.710;27.258;2024-01-15T08:33:44;45.00;;;32.47;;
12348;SDS011;5974;42.710;27.258;2024-01-15T08:36:11;43.00;;;31.57;;
12348;SDS011;5974;42.710;27.258;2024-01-15T08:38:38;51.03;;;34.13;;
12348;SDS011;5974;42.710;27.258;2024-01-15T08:41:06;78.67;;;63.27;;
12348;SDS011;5974;42.710;27.258;2024-01-15T08:43:33;138.20;;;74.03;;
12348;SDS011;5974;42.710;27.258;2024-01-15T08:46:00;151.60;;;90.33;;
12348;SDS011;5974;42.710;27.258;2024-01-15T08:48:27;56.53;;;40.33;;
12348;SDS011;5974;42.710;27.258;2024-01-15T08:50:54;50.00;;;33.73;;
12348;SDS011;5974;42.710;27.258;2024-01-15T08:53:22;112.47;;;64.30;;
12348;SDS011;5974;42.710;27.258;2024-01-15T08:55:49;49.60;;;32.60;;
12348;SDS011;5974;42.710;27.258;2024-01-15T08:58:17;44.27;;;30.27;;
12348;SDS011;5974;42.710;27.258;2024-01-15T09:00:44;23.57;;;15.93;;
12348;SDS011;5974;42.710;27.258;2024-01-15T09:03:10;22.97;;;16.47;;
12348;SDS011;5974;42.710;27.258;2024-01-15T09:05:37;18.13;;;13.53;;
12348;SDS011;5974;42.710;27.258;2024-01-15T09:08:06;23.90;;;17.30;;
12348;SDS011;5974;42.710;27.258;2024-01-15T09:10:32;28.70;;;19.77;;
12348;SDS011;5974;42.710;27.258;2024-01-15T09:12:59;27.73;;;18.43;;
12348;SDS011;5974;42.710;27.258;2024-01-15T09:15:27;26.50;;;17.80;;
12348;SDS011;5974;42.710;27.258;2024-01-15T09:17:54;26.53;;;17.83;;
12348;SDS011;5974;42.710;27.258;2024-01-15T09:20:22;21.43;;;15.13;;
12348;SDS011;5974;42.710;27.258;2024-01-15T09:22:50;22.73;;;17.40;;
12348;SDS011;5974;42.710;27.258;2024-01-15T09:25:17;19.57;;;14.83;;
12348;SDS011;5974;42.710;27.258;2024-01-15T09:27:44;20.83;;;15.47;;
12348;SDS011;5974;42.710;27.258;2024-01-15T09:30:11;25.93;;;16.93;;
12348;SDS011;5974;42.710;27.258;2024-01-15T09:32:40;21.73;;;15.63;;
12348;SDS011;5974;42.710;27.258;2024-01-15T09:35:07;16.83;;;13.57;;
12348;SDS011;5974;42.710;27.258;2024-01-15T09:37:34;19.30;;;14.03;;
12348;SDS011;5974;42.710;27.258;2024-01-15T09:40:02;20.43;;;13.47;;
12348;SDS011;5974;42.710;27.258;2024-01-15T09:42:29;32.00;;;20.13;;
12348;SDS011;5974;42.710;27.258;2024-01-15T09:44:57;28.33;;;18.70;;
12348;SDS011;5974;42.710;27.258;2024-01-15T09:47:24;23.97;;;15.00;;
12348;SDS011;5974;42.710;27.258;2024-01-15T09:49:52;23.10;;;14.37;;
12348;SDS011;5974;42.710;27.258;2024-01-15T09:52:19;16.53;;;12.43;;
12348;SDS011;5974;42.710;27.258;2024-01-15T09:54:46;22.27;;;14.43;;
12348;SDS011;5974;42.710;27.258;2024-01-15T09:57:15;18.83;;;14.30;;
12348;SDS011;5974;42.710;27.258;2024-01-15T09:59:42;18.93;;;13.53;;
12348;SDS011;5974;42.710;27.258;2024-01-15T10:02:09;16.83;;;12.70;;
12348;SDS011;5974;42.710;27.258;2024-01-15T10:04:43;23.40;;;15.00;;
12348;SDS011;5974;42.710;27.258;2024-01-15T10:07:12;22.10;;;15.70;;
12348;SDS011;5974;42.710;27.258;2024-01-15T10:09:42;19.50;;;13.93;;
12348;SDS011;5974;42.710;27.258;2024-01-15T10:12:09;25.80;;;16.80;;
12348;SDS011;5974;42.710;27.258;2024-01-15T10:14:37;22.30;;;14.63;;
12348;SDS011;5974;42.710;27.258;2024-01-15T10:17:11;19.57;;;14.70;;
12348;SDS011;5974;42.710;27.258;2024-01-15T10:19:39;21.90;;;13.80;;
12348;SDS011;5974;42.710;27.258;2024-01-15T10:22:06;20.27;;;13.70;;
12348;SDS011;5974;42.710;27.258;2024-01-15T10:24:36;20.80;;;15.30;;
12348;SDS011;5974;42.710;27.258;2024-01-15T10:27:06;19.07;;;13.30;;
12348;SDS011;5974;42.710;27.258;2024-01-15T10:29:34;18.93;;;13.23;;
12348;SDS011;5974;42.710;27.258;2024-01-15T10:32:01;19.53;;;12.27;;
12348;SDS011;5974;42.710;27.258;2024-01-15T10:34:30;16.70;;;13.67;;
12348;SDS011;5974;42.710;27.258;2024-01-15T10:36:56;21.57;;;15.50;;
12348;SDS011;5974;42.710;27.258;2024-01-15T10:39:23;16.53;;;13.00;;
12348;SDS011;5974;42.710;27.258;2024-01-15T10:41:51;16.07;;;13.30;;
12348;SDS011;5974;42.710;27.258;2024-01-15T10:44:18;15.37;;;12.93;;
12348;SDS011;5974;42.710;27.258;2024-01-15T10:46:44;18.93;;;12.60;;
12348;SDS011;5974;42.710;27.258;2024-01-15T10:49:12;14.07;;;11.90;;
12348;SDS011;5974;42.710;27.258;2024-01-15T10:51:39;19.60;;;13.87;;
12348;SDS011;5974;42.710;27.258;2024-01-15T10:54:08;17.43;;;13.57;;
12348;SDS011;5974;42.710;27.258;2024-01-15T10:56:37;16.93;;;13.60;;
12348;SDS011;5974;42.710;27.258;2024-01-15T10:59:05;17.57;;;13.23;;
12348;SDS011;5974;42.710;27.258;2024-01-15T11:01:35;18.27;;;12.77;;
12348;SDS011;5974;42.710;27.258;2024-01-15T11:04:02;15.57;;;12.97;;
12348;SDS011;5974;42.710;27.258;2024-01-15T11:06:41;15.40;;;12.60;;
12348;SDS011;5974;42.710;27.258;2024-01-15T11:09:09;21.00;;;12.53;;
12348;SDS011;5974;42.710;27.258;2024-01-15T11:11:39;15.17;;;12.20;;
12348;SDS011;5974;42.710;27.258;2024-01-15T11:14:08;16.50;;;13.50;;
12348;SDS011;5974;42.710;27.258;2024-01-15T11:19:35;17.03;;;11.93;;
12348;SDS011;5974;42.710;27.258;2024-01-15T11:22:03;18.20;;;13.03;;
12348;SDS011;5974;42.710;27.258;2024-01-15T11:24:34;16.17;;;12.53;;
12348;SDS011;5974;42.710;27.258;2024-01-15T11:27:03;19.90;;;14.10;;
12348;SDS011;5974;42.710;27.258;2024-01-15T11:29:32;20.60;;;13.90;;
12348;SDS011;5974;42.710;27.258;2024-01-15T11:32:00;17.10;;;13.97;;
12348;SDS011;5974;42.710;27.258;2024-01-15T11:37:20;17.20;;;13.33;;
12348;SDS011;5974;42.710;27.258;2024-01-15T11:39:49;16.73;;;13.03;;
12348;SDS011;5974;42.710;27.258;2024-01-15T11:42:17;22.53;;;14.63;;
12348;SDS011;5974;42.710;27.258;2024-01-15T11:44:47;20.07;;;14.87;;
12348;SDS011;5974;42.710;27.258;2024-01-15T11:47:14;17.17;;;13.63;;
12348;SDS011;5974;42.710;27.258;2024-01-15T11:52:34;19.97;;;14.23;;
12348;SDS011;5974;42.710;27.258;2024-01-15T11:55:06;15.17;;;12.43;;
12348;SDS011;5974;42.710;27.258;2024-01-15T11:57:40;14.80;;;11.77;;
12348;SDS011;5974;42.710;27.258;2024-01-15T12:00:11;13.67;;;11.27;;
12348;SDS011;5974;42.710;27.258;2024-01-15T12:02:39;18.00;;;13.47;;
12348;SDS011;5974;42.710;27.258;2024-01-15T12:05:07;23.87;;;13.27;;
12348;SDS011;5974;42.710;27.258;2024-01-15T12:07:35;15.27;;;12.53;;
12348;SDS011;5974;42.710;27.258;2024-01-15T12:10:01;15.07;;;12.07;;
12348;SDS011;5974;42.710;27.258;2024-01-15T12:12:31;16.47;;;13.27;;
12348;SDS011;5974;42.710;27.258;2024-01-15T12:15:06;21.10;;;14.97;;
12348;SDS011;5974;42.710;27.258;2024-01-15T12:17:35;19.07;;;12.90;;
12348;SDS011;5974;42.710;27.258;2024-01-15T12:20:02;19.07;;;14.07;;
12348;SDS011;5974;42.710;27.258;2024-01-15T12:22:29;17.23;;;14.00;;
12348;SDS011;5974;42.710;27.258;2024-01-15T12:24:56;18.23;;;13.97;;
12348;SDS011;5974;42.710;27.258;2024-01-15T12:27:23;21.83;;;15.90;;
12348;SDS011;5974;42.710;27.258;2024-01-15T12:29:52;58.90;;;42.90;;
12348;SDS011;5974;42.710;27.258;2024-01-15T12:32:19;22.73;;;14.77;;
12348;SDS011;5974;42.710;27.258;2024-01-15T12:34:48;19.50;;;14.83;;
12348;SDS011;5974;42.710;27.258;2024-01-15T12:37:15;18.57;;;13.27;;
12348;SDS011;5974;42.710;27.258;2024-01-15T12:39:44;16.50;;;13.47;;
12348;SDS011;5974;42.710;27.258;2024-01-15T12:42:11;16.13;;;13.17;;
12348;SDS011;5974;42.710;27.258;2024-01-15T12:44:40;16.27;;;12.23;;
12348;SDS011;5974;42.710;27.258;2024-01-15T12:47:06;18.50;;;13.47;;
12348;SDS011;5974;42.710;27.258;2024-01-15T12:49:33;18.73;;;14.47;;
12348;SDS011;5974;42.710;27.258;2024-01-15T12:52:04;17.67;;;14.60;;
12348;SDS011;5974;42.710;27.258;2024-01-15T12:54:30;19.87;;;14.80;;
12348;SDS011;5974;42.710;27.258;2024-01-15T12:56:57;27.00;;;17.37;;
12348;SDS011;5974;42.710;27.258;2024-01-15T12:59:24;20.17;;;15.60;;
12348;SDS011;5974;42.710;27.258;2024-01-15T13:01:51;20.43;;;16.73;;
12348;SDS011;5974;42.710;27.258;2024-01-15T13:04:21;20.00;;;16.30;;
12348;SDS011;5974;42.710;27.258;2024-01-15T13:06:48;19.03;;;15.73;;
12348;SDS011;5974;42.710;27.258;2024-01-15T13:09:17;17.77;;;13.20;;
12348;SDS011;5974;42.710;27.258;2024-01-15T13:11:44;17.73;;;14.03;;
12348;SDS011;5974;42.710;27.258;2024-01-15T13:14:11;17.33;;;13.27;;
12348;SDS011;5974;42.710;27.258;2024-01-15T13:16:38;20.10;;;14.67;;
12348;SDS011;5974;42.710;27.258;2024-01-15T13:19:06;16.50;;;13.70;;
12348;SDS011;5974;42.710;27.258;2024-01-15T13:21:36;17.93;;;13.33;;
12348;SDS011;5974;42.710;27.258;2024-01-15T13:24:03;21.63;;;13.93;;
12348;SDS011;5974;42.710;27.258;2024-01-15T13:26:32;18.17;;;12.43;;
12348;SDS011;5974;42.710;27.258;2024-01-15T13:28:59;15.53;;;12.50;;
12348;SDS011;5974;42.710;27.258;2024-01-15T13:31:26;17.03;;;12.07;;
12348;SDS011;5974;42.710;27.258;2024-01-15T13:33:53;16.40;;;12.83;;
12348;SDS011;5974;42.710;27.258;2024-01-15T13:36:20;15.47;;;12.53;;
12348;SDS011;5974;42.710;27.258;2024-01-15T13:38:48;17.37;;;12.83;;
12348;SDS011;5974;42.710;27.258;2024-01-15T13:41:15;18.37;;;13.50;;
12348;SDS011;5974;42.710;27.258;2024-01-15T13:43:45;18.17;;;13.33;;
12348;SDS011;5974;42.710;27.258;2024-01-15T13:46:12;17.60;;;12.47;;
12348;SDS011;5974;42.710;27.258;2024-01-15T13:48:38;16.57;;;13.57;;
12348;SDS011;5974;42.710;27.258;2024-01-15T13:51:05;20.43;;;16.17;;
12348;SDS011;5974;42.710;27.258;2024-01-15T13:53:32;22.03;;;15.97;;
12348;SDS011;5974;42.710;27.258;2024-01-15T13:55:59;20.77;;;16.37;;
12348;SDS011;5974;42.710;27.258;2024-01-15T13:58:25;20.70;;;17.03;;
12348;SDS011;5974;42.710;27.258;2024-01-15T14:00:54;24.13;;;17.17;;
12348;SDS011;5974;42.710;27.258;2024-01-15T14:03:20;20.73;;;13.77;;
12348;SDS011;5974;42.710;27.258;2024-01-15T14:05:47;23.10;;;15.50;;
12348;SDS011;5974;42.710;27.258;2024-01-15T14:08:16;19.37;;;15.20;;
12348;SDS011;5974;42.710;27.258;2024-01-15T14:10:42;22.50;;;16.37;;
12348;SDS011;5974;42.710;27.258;2024-01-15T14:13:10;34.50;;;23.60;;
12348;SDS011;5974;42.710;27.258;2024-01-15T14:15:36;23.20;;;18.30;;
12348;SDS011;5974;42.710;27.258;2024-01-15T14:18:05;27.90;;;22.20;;
12348;SDS011;5974;42.710;27.258;2024-01-15T14:20:32;19.50;;;15.43;;
12348;SDS011;5974;42.710;27.258;2024-01-15T14:22:59;21.73;;;16.53;;
12348;SDS011;5974;42.710;27.258;2024-01-15T14:25:26;24.47;;;16.47;;
12348;SDS011;5974;42.710;27.258;2024-01-15T14:27:52;21.67;;;13.63;;
12348;SDS011;5974;42.710;27.258;2024-01-15T14:30:19;20.47;;;15.53;;